logo
Search for airport 
image banner adimage banner adimage banner ad
image banner ad

LSHW - Kantonsspital Winterthur

Located in , Switzerland

ICAO - , IATA -

Data provided by Airmate  

General information

Coordinates: N47°30'26" E8°43'42"
Elevation is 1555 feet MSL.
 
View others Airports in Zurich

Operational data

Special qualification required
Current time UTC:
Current local time:
Weather at : LSMD - Dubendorf ( 14 km )
METAR: LSMD 152150Z AUTO 30009KT 270V330 9999NDV BKN076 13/03 Q1011 RMK
View NOTAMs / SUP AIP / TFR affecting this airport [VIEW]
Communications frequencies: [VIEW]

Runways:

Airport contact information

Address: Switzerland

Satellite view of LSHW